Time;durP1;ratioP1;P1;durP2;ratioP2;P2;SDS_P1;SDS_P2;PMS_P1;PMS_P2;Temp;Humidity;BMP_temperature;BMP_pressure;BME280_temperature;BME280_humidity;BME280_pressure;Samples;Min_cycle;Max_cycle;Signal;HPM_P1;HPM_P2
2023/02/28 00:00:10;;;;;;;20.50;9.20;;;;;;;1.24;100.00;101184.26;106886;1278;25392;-68
2023/02/28 00:02:41;;;;;;;18.50;9.00;;;;;;;1.24;100.00;101174.47;106828;1278;25364;-68
2023/02/28 00:05:10;;;;;;;18.60;8.80;;;;;;;1.24;100.00;101178.19;106924;1278;24198;-68
2023/02/28 00:07:43;;;;;;;19.80;9.50;;;;;;;1.24;100.00;101184.07;106763;1278;26515;-66
2023/02/28 00:10:20;;;;;;;17.80;8.30;;;;;;;1.23;100.00;101183.92;106817;1278;25977;-68
2023/02/28 00:12:51;;;;;;;17.90;9.20;;;;;;;1.23;100.00;101185.20;106957;1278;22536;-68
2023/02/28 00:15:20;;;;;;;18.50;8.20;;;;;;;1.22;100.00;101190.78;106829;1278;22668;-67
2023/02/28 00:17:51;;;;;;;20.70;10.30;;;;;;;1.20;100.00;101190.17;106800;1278;25433;-67
2023/02/28 00:20:20;;;;;;;18.80;8.70;;;;;;;1.19;100.00;101187.89;106856;1278;26532;-67
2023/02/28 00:22:52;;;;;;;20.90;9.40;;;;;;;1.18;100.00;101186.38;106815;1278;22560;-69
2023/02/28 00:25:23;;;;;;;21.40;9.90;;;;;;;1.16;100.00;101182.53;106636;1278;26498;-68
2023/02/28 00:27:52;;;;;;;20.10;10.50;;;;;;;1.16;100.00;101176.70;106668;1278;23890;-69
2023/02/28 00:30:22;;;;;;;21.80;10.30;;;;;;;1.13;100.00;101170.97;106693;1278;25290;-68
2023/02/28 00:32:51;;;;;;;21.20;9.60;;;;;;;1.11;100.00;101173.20;106719;1278;24261;-69
2023/02/28 00:35:21;;;;;;;20.50;9.50;;;;;;;1.09;100.00;101178.25;106839;1278;23630;-69
2023/02/28 00:37:50;;;;;;;21.10;10.40;;;;;;;1.09;100.00;101180.06;106819;1276;229607;-68
2023/02/28 00:40:19;;;;;;;21.50;10.70;;;;;;;1.08;100.00;101181.02;106911;1276;25319;-73
2023/02/28 00:42:47;;;;;;;22.70;10.70;;;;;;;1.07;100.00;101182.69;106169;1276;1002990;-68
2023/02/28 00:45:16;;;;;;;20.90;10.30;;;;;;;1.06;100.00;101185.22;106869;1276;25383;-68
2023/02/28 00:47:46;;;;;;;23.50;10.80;;;;;;;1.05;100.00;101184.56;106741;1276;23296;-69
2023/02/28 00:50:17;;;;;;;21.80;10.70;;;;;;;1.04;100.00;101187.23;106881;1276;23514;-69
2023/02/28 00:52:49;;;;;;;24.60;12.20;;;;;;;1.03;100.00;101180.23;106863;1276;26710;-68
2023/02/28 00:55:18;;;;;;;22.70;10.60;;;;;;;1.01;100.00;101184.40;106837;1276;25338;-68
2023/02/28 00:57:48;;;;;;;23.70;11.10;;;;;;;0.98;100.00;101183.34;107003;1276;25481;-68
2023/02/28 01:00:18;;;;;;;22.50;10.70;;;;;;;0.95;100.00;101178.52;106872;1276;26512;-70
2023/02/28 01:02:50;;;;;;;22.70;9.90;;;;;;;0.92;100.00;101182.55;106879;1276;24405;-70
2023/02/28 01:05:19;;;;;;;23.40;10.90;;;;;;;0.91;100.00;101188.29;106929;1276;26527;-69
2023/02/28 01:07:48;;;;;;;21.80;9.80;;;;;;;0.91;100.00;101200.58;106892;1276;25347;-67
2023/02/28 01:10:16;;;;;;;22.20;10.60;;;;;;;0.89;100.00;101203.52;106139;1276;1003732;-68
2023/02/28 01:12:45;;;;;;;21.00;10.10;;;;;;;0.87;100.00;101210.20;106919;1276;24324;-67
2023/02/28 01:15:16;;;;;;;23.60;11.20;;;;;;;0.86;100.00;101215.23;106846;1276;23906;-69
2023/02/28 01:17:56;;;;;;;22.30;10.30;;;;;;;0.84;100.00;101217.97;106856;1276;26519;-69
2023/02/28 01:20:25;;;;;;;25.10;10.40;;;;;;;0.83;100.00;101225.31;106846;1276;24241;-71
2023/02/28 01:22:54;;;;;;;23.20;10.40;;;;;;;0.82;100.00;101220.21;106857;1276;24191;-69
2023/02/28 01:25:23;;;;;;;20.80;9.60;;;;;;;0.80;100.00;101221.02;106851;1276;25432;-71
2023/02/28 01:27:53;;;;;;;19.50;8.90;;;;;;;0.76;100.00;101217.64;106923;1276;25476;-69
2023/02/28 01:30:22;;;;;;;22.80;10.00;;;;;;;0.75;100.00;101217.20;106891;1276;25310;-69
2023/02/28 01:32:53;;;;;;;22.30;10.20;;;;;;;0.73;100.00;101215.86;106921;1276;25291;-68
2023/02/28 01:35:21;;;;;;;20.00;8.90;;;;;;;0.72;100.00;101217.52;106920;1276;24657;-68
2023/02/28 01:37:50;;;;;;;20.20;9.20;;;;;;;0.69;100.00;101211.45;106833;1276;25271;-68
2023/02/28 01:40:19;;;;;;;21.90;9.90;;;;;;;0.68;100.00;101209.56;106854;1278;22529;-68
2023/02/28 01:42:48;;;;;;;19.20;9.20;;;;;;;0.64;100.00;101203.70;106035;1278;1003051;-67
2023/02/28 01:45:28;;;;;;;20.80;9.80;;;;;;;0.60;100.00;101200.75;106744;1278;25574;-69
2023/02/28 01:48:00;;;;;;;18.20;8.40;;;;;;;0.57;100.00;101185.80;106811;1278;25435;-69
2023/02/28 01:50:31;;;;;;;18.60;8.80;;;;;;;0.52;100.00;101184.25;106866;1278;24305;-67
2023/02/28 01:53:01;;;;;;;18.60;8.40;;;;;;;0.49;100.00;101183.20;106867;1277;22530;-68
2023/02/28 01:55:34;;;;;;;18.40;8.90;;;;;;;0.45;100.00;101189.59;106841;1278;25361;-67
2023/02/28 01:58:04;;;;;;;22.90;9.60;;;;;;;0.42;100.00;101197.73;106863;1278;25252;-68
2023/02/28 02:00:33;;;;;;;19.60;9.30;;;;;;;0.41;100.00;101202.44;106091;1277;1003370;-67
2023/02/28 02:03:08;;;;;;;19.20;8.50;;;;;;;0.40;100.00;101211.86;106651;1278;23252;-68
2023/02/28 02:05:38;;;;;;;20.00;8.90;;;;;;;0.38;100.00;101218.48;106902;1278;24199;-69
2023/02/28 02:08:11;;;;;;;20.00;9.70;;;;;;;0.38;100.00;101230.59;106875;1278;25300;-69
2023/02/28 02:10:43;;;;;;;21.80;10.10;;;;;;;0.37;100.00;101232.02;106560;1278;25310;-70
2023/02/28 02:13:46;;;;;;;19.00;8.90;;;;;;;0.36;100.00;101237.08;106685;1278;22526;-69
2023/02/28 02:16:34;;;;;;;18.40;8.40;;;;;;;0.36;100.00;101234.77;106933;1278;25268;-69
2023/02/28 02:19:13;;;;;;;19.10;8.80;;;;;;;0.37;100.00;101245.00;106870;1276;24919;-68
2023/02/28 02:22:03;;;;;;;19.70;8.30;;;;;;;0.35;100.00;101258.40;106929;1276;26557;-69
2023/02/28 02:24:59;;;;;;;18.80;9.00;;;;;;;0.33;100.00;101260.95;106793;1276;23898;-69
2023/02/28 02:27:39;;;;;;;19.00;9.60;;;;;;;0.33;100.00;101267.70;106866;1276;25429;-68
2023/02/28 02:30:41;;;;;;;17.50;8.50;;;;;;;0.33;100.00;101275.37;106907;1276;25501;-71
2023/02/28 02:33:16;;;;;;;20.50;8.50;;;;;;;0.31;100.00;101268.70;106947;1276;25262;-69
2023/02/28 02:35:51;;;;;;;17.60;8.20;;;;;;;0.28;100.00;101276.11;106882;1276;25309;-68
2023/02/28 02:38:45;;;;;;;19.00;8.50;;;;;;;0.27;100.00;101277.94;106886;1278;24363;-67
2023/02/28 02:41:24;;;;;;;21.40;9.50;;;;;;;0.27;100.00;101269.98;106910;1278;24327;-67
2023/02/28 02:43:57;;;;;;;18.00;8.30;;;;;;;0.25;100.00;101266.70;106816;1278;22538;-68
2023/02/28 02:46:28;;;;;;;;;;;;;;;0.22;100.00;101265.23;106827;1278;22834;-68
2023/02/28 02:48:56;;;;;;;19.30;8.80;;;;;;;0.19;100.00;101271.98;106793;1278;24301;-68
2023/02/28 02:51:25;;;;;;;22.20;10.20;;;;;;;0.15;100.00;101272.98;106704;1278;23121;-68
2023/02/28 02:53:59;;;;;;;25.20;12.00;;;;;;;0.13;100.00;101279.85;106622;1278;23865;-68
2023/02/28 02:56:29;;;;;;;24.40;11.90;;;;;;;0.11;100.00;101290.42;106069;1278;1016457;-72
2023/02/28 02:59:02;;;;;;;25.30;13.80;;;;;;;0.08;100.00;101301.58;106620;1278;25350;-68
2023/02/28 03:01:31;;;;;;;24.40;14.70;;;;;;;0.06;100.00;101305.73;106642;1278;22539;-67
2023/02/28 03:04:06;;;;;;;29.00;15.70;;;;;;;0.04;100.00;101310.60;106739;1278;25271;-67
2023/02/28 03:06:35;;;;;;;24.20;11.50;;;;;;;0.03;100.00;101319.20;106831;1278;22519;-66
2023/02/28 03:09:04;;;;;;;25.70;13.40;;;;;;;0.01;100.00;101322.46;106859;1277;24040;-68
2023/02/28 03:11:33;;;;;;;25.00;12.70;;;;;;;-0.00;100.00;101332.25;106845;1278;22529;-69
2023/02/28 03:14:24;;;;;;;21.40;10.60;;;;;;;-0.04;100.00;101335.23;106543;1278;25333;-68
2023/02/28 03:17:18;;;;;;;22.30;10.90;;;;;;;-0.05;100.00;101332.80;106824;1278;22785;-67
2023/02/28 03:20:12;;;;;;;24.00;11.30;;;;;;;-0.05;100.00;101334.42;106887;1278;25303;-67
2023/02/28 03:23:02;;;;;;;21.10;10.40;;;;;;;-0.06;100.00;101338.19;106902;1278;25472;-68
2023/02/28 03:25:56;;;;;;;20.70;10.00;;;;;;;-0.08;100.00;101337.91;106629;1277;25467;-68
2023/02/28 03:28:31;;;;;;;21.10;10.40;;;;;;;-0.09;100.00;101337.45;106839;1277;25922;-68
2023/02/28 03:31:43;;;;;;;22.30;10.80;;;;;;;-0.10;100.00;101339.80;106862;1278;22530;-69
2023/02/28 03:34:33;;;;;;;24.30;10.50;;;;;;;-0.12;100.00;101343.45;106111;1278;1003040;-67
2023/02/28 03:37:04;;;;;;;20.50;9.50;;;;;;;-0.12;100.00;101340.07;106899;1276;23657;-69
2023/02/28 03:39:39;;;;;;;22.00;9.30;;;;;;;-0.13;100.00;101342.58;106897;1276;25423;-70
2023/02/28 03:42:14;;;;;;;21.40;10.20;;;;;;;-0.14;100.00;101344.96;106781;1276;26516;-69
2023/02/28 03:44:45;;;;;;;21.80;9.90;;;;;;;-0.16;100.00;101348.07;106822;1276;24249;-69
2023/02/28 03:47:17;;;;;;;21.40;10.60;;;;;;;-0.18;100.00;101351.33;106924;1276;22529;-69
2023/02/28 03:49:53;;;;;;;21.70;11.00;;;;;;;-0.18;100.00;101351.71;106825;1276;25255;-68
2023/02/28 03:52:23;;;;;;;18.70;8.80;;;;;;;-0.18;100.00;101350.64;106965;1276;25366;-68
2023/02/28 03:54:54;;;;;;;21.00;9.90;;;;;;;-0.19;100.00;101350.31;106865;1276;25361;-68
2023/02/28 03:57:37;;;;;;;21.10;10.10;;;;;;;-0.20;100.00;101357.25;106825;1278;23908;-68
2023/02/28 04:00:13;;;;;;;18.30;8.70;;;;;;;-0.21;100.00;101356.80;106889;1278;22538;-69
2023/02/28 04:02:42;;;;;;;20.20;8.80;;;;;;;-0.22;100.00;101367.45;106845;1278;22530;-68
2023/02/28 04:05:11;;;;;;;22.30;10.20;;;;;;;-0.22;100.00;101369.05;106829;1278;25277;-67
2023/02/28 04:07:42;;;;;;;20.30;9.20;;;;;;;-0.24;100.00;101370.90;106862;1278;25255;-68
2023/02/28 04:10:11;;;;;;;19.00;8.30;;;;;;;-0.24;100.00;101372.67;106853;1278;23068;-68
2023/02/28 04:12:40;;;;;;;18.20;8.90;;;;;;;-0.24;100.00;101379.25;106619;1278;25310;-69
2023/02/28 04:15:11;;;;;;;19.00;8.80;;;;;;;-0.24;100.00;101382.40;106849;1278;25475;-67
2023/02/28 04:17:40;;;;;;;18.90;8.20;;;;;;;-0.22;100.00;101387.67;106898;1278;25349;-68
2023/02/28 04:20:10;;;;;;;19.90;9.20;;;;;;;-0.21;100.00;101393.27;106904;1278;26530;-68
2023/02/28 04:22:39;;;;;;;18.60;8.70;;;;;;;-0.21;100.00;101393.13;106902;1277;25310;-68
2023/02/28 04:25:07;;;;;;;21.30;10.50;;;;;;;-0.22;100.00;101397.40;106788;1278;25819;-68
2023/02/28 04:27:37;;;;;;;18.20;8.40;;;;;;;-0.22;100.00;101398.81;106792;1278;25495;-69
2023/02/28 04:30:07;;;;;;;18.60;8.80;;;;;;;-0.23;100.00;101404.73;106812;1278;25574;-69
2023/02/28 04:32:35;;;;;;;18.30;8.80;;;;;;;-0.23;100.00;101401.73;106842;1278;25436;-67
2023/02/28 04:35:05;;;;;;;20.70;9.00;;;;;;;-0.25;100.00;101404.63;106784;1278;22555;-67
2023/02/28 04:37:36;;;;;;;19.60;9.10;;;;;;;-0.25;100.00;101405.33;106854;1276;26034;-67
2023/02/28 04:40:07;;;;;;;22.30;10.60;;;;;;;-0.25;100.00;101405.88;106836;1276;22545;-68
2023/02/28 04:42:36;;;;;;;25.00;12.30;;;;;;;-0.25;100.00;101406.75;106851;1276;25356;-68
2023/02/28 04:45:05;;;;;;;20.30;10.70;;;;;;;-0.26;100.00;101411.95;106121;1276;1003600;-68
2023/02/28 04:47:34;;;;;;;21.90;11.80;;;;;;;-0.27;100.00;101414.82;106883;1276;23327;-68
2023/02/28 04:50:03;;;;;;;23.50;11.00;;;;;;;-0.26;100.00;101412.14;107263;1276;22530;-76
2023/02/28 04:52:36;;;;;;;28.90;13.70;;;;;;;-0.27;100.00;101410.04;107870;1276;25326;-75
2023/02/28 04:55:05;;;;;;;36.60;17.20;;;;;;;-0.27;100.00;101411.80;107950;1276;25459;-76
2023/02/28 04:57:34;;;;;;;51.80;25.10;;;;;;;-0.28;100.00;101408.48;107929;1276;23994;-76
2023/02/28 05:00:06;;;;;;;33.20;18.30;;;;;;;-0.27;100.00;101416.44;107134;1276;1002390;-75
2023/02/28 05:02:38;;;;;;;32.80;17.10;;;;;;;-0.28;100.00;101425.50;107812;1276;23084;-76
2023/02/28 05:05:07;;;;;;;23.70;12.90;;;;;;;-0.28;100.00;101422.88;107946;1276;22524;-76
2023/02/28 05:07:36;;;;;;;22.80;10.70;;;;;;;-0.30;100.00;101427.00;107749;1276;22527;-75
2023/02/28 05:10:05;;;;;;;21.00;10.60;;;;;;;-0.29;100.00;101433.01;107820;1276;22536;-76
2023/02/28 05:12:35;;;;;;;20.80;9.80;;;;;;;-0.32;100.00;101439.33;107841;1276;22523;-76
2023/02/28 05:15:04;;;;;;;19.90;10.00;;;;;;;-0.32;100.00;101440.95;107945;1276;22467;-76
2023/02/28 05:17:33;;;;;;;20.00;9.00;;;;;;;-0.31;100.00;101436.79;107939;1270;25420;-76
2023/02/28 05:20:04;;;;;;;21.40;9.90;;;;;;;-0.30;100.00;101439.77;107962;1276;23879;-75
2023/02/28 05:22:43;;;;;;;24.50;12.10;;;;;;;-0.30;100.00;101435.34;107943;1276;25426;-76
2023/02/28 05:25:17;;;;;;;24.30;11.20;;;;;;;-0.32;100.00;101433.48;107815;1276;25433;-76
2023/02/28 05:27:46;;;;;;;20.80;10.30;;;;;;;-0.30;100.00;101430.02;107838;1276;26516;-75
2023/02/28 05:30:16;;;;;;;20.80;10.10;;;;;;;-0.29;100.00;101430.34;107718;1276;23732;-76
2023/02/28 05:32:49;;;;;;;24.60;10.80;;;;;;;-0.28;100.00;101427.60;107813;1276;25549;-76
2023/02/28 05:35:18;;;;;;;26.80;10.60;;;;;;;-0.25;100.00;101424.46;107023;1276;1002906;-76
2023/02/28 05:37:47;;;;;;;21.30;10.00;;;;;;;-0.21;100.00;101436.38;107822;1263;23030;-75
2023/02/28 05:40:16;;;;;;;41.40;17.90;;;;;;;-0.21;100.00;101443.25;107858;1276;25255;-76
2023/02/28 05:42:46;;;;;;;29.30;14.10;;;;;;;-0.19;100.00;101451.85;107703;1276;25430;-76
2023/02/28 05:45:15;;;;;;;23.60;11.80;;;;;;;-0.17;100.00;101454.63;107731;1276;27250;-75
2023/02/28 05:47:44;;;;;;;22.60;10.40;;;;;;;-0.16;100.00;101457.59;107948;1276;25974;-76
2023/02/28 05:50:13;;;;;;;25.00;11.70;;;;;;;-0.15;100.00;101455.76;107868;1276;25968;-76
2023/02/28 05:52:41;;;;;;;22.60;11.00;;;;;;;-0.14;100.00;101458.38;107142;1276;1003450;-77
2023/02/28 05:55:10;;;;;;;26.00;13.70;;;;;;;-0.11;100.00;101463.75;107651;1276;26015;-77
2023/02/28 05:57:40;;;;;;;30.40;15.40;;;;;;;-0.10;100.00;101467.59;107784;1278;22541;-77
2023/02/28 06:00:12;;;;;;;27.10;14.00;;;;;;;-0.11;100.00;101461.79;107630;1278;25418;-77
2023/02/28 06:02:40;;;;;;;26.60;13.80;;;;;;;-0.12;100.00;101461.67;107696;1278;22534;-76
2023/02/28 06:05:14;;;;;;;29.30;14.90;;;;;;;-0.13;100.00;101466.14;107735;1278;25425;-76
2023/02/28 06:07:43;;;;;;;27.80;14.50;;;;;;;-0.12;100.00;101468.60;107839;1278;25900;-76
2023/02/28 06:10:13;;;;;;;23.10;11.50;;;;;;;-0.11;100.00;101487.50;107880;1278;25968;-76
2023/02/28 06:12:41;;;;;;;25.30;12.10;;;;;;;-0.10;100.00;101491.73;107752;1278;23913;-77
2023/02/28 06:15:12;;;;;;;23.20;11.30;;;;;;;-0.10;100.00;101488.87;107856;1278;22961;-75
2023/02/28 06:17:42;;;;;;;20.30;10.20;;;;;;;-0.11;100.00;101485.73;107217;1278;1003066;-75
2023/02/28 06:20:12;;;;;;;18.90;9.40;;;;;;;-0.12;100.00;101485.09;107817;1278;22609;-76
2023/02/28 06:22:41;;;;;;;18.50;8.20;;;;;;;-0.12;100.00;101484.54;107888;1278;22688;-79
2023/02/28 06:25:10;;;;;;;18.30;9.10;;;;;;;-0.11;100.00;101484.98;107923;1269;25223;-74
2023/02/28 06:27:39;;;;;;;17.40;8.60;;;;;;;-0.09;100.00;101482.83;107023;1273;25425;-70
2023/02/28 06:30:09;;;;;;;19.90;8.90;;;;;;;-0.10;100.00;101484.79;106911;1276;26646;-70
2023/02/28 06:32:37;;;;;;;21.30;10.10;;;;;;;-0.08;100.00;101488.63;106975;1269;22669;-70
2023/02/28 06:35:07;;;;;;;22.30;11.00;;;;;;;-0.06;100.00;101490.82;107056;1276;25572;-70
2023/02/28 06:37:36;;;;;;;23.70;12.40;;;;;;;-0.01;100.00;101492.20;107131;1269;25441;-70
2023/02/28 06:40:10;;;;;;;21.70;10.60;;;;;;;0.04;100.00;101490.77;106981;1270;25420;-70
2023/02/28 06:42:39;;;;;;;20.70;9.30;;;;;;;0.05;100.00;101492.29;107279;1276;25271;-70
2023/02/28 06:45:10;;;;;;;23.00;11.90;;;;;;;0.06;100.00;101489.80;106450;1276;1003190;-72
2023/02/28 06:47:39;;;;;;;38.30;23.50;;;;;;;0.04;100.00;101485.42;106410;1276;1003272;-71
2023/02/28 06:50:10;;;;;;;25.80;14.50;;;;;;;0.03;100.00;101489.20;107088;1276;25474;-73
2023/02/28 06:52:41;;;;;;;23.70;13.60;;;;;;;0.03;100.00;101489.91;106284;1278;1003591;-70
2023/02/28 06:55:11;;;;;;;25.70;13.60;;;;;;;0.04;100.00;101487.94;106302;1277;1003016;-71
2023/02/28 06:57:41;;;;;;;24.50;12.40;;;;;;;0.04;100.00;101489.86;107046;1278;23104;-71
2023/02/28 07:00:10;;;;;;;26.80;14.30;;;;;;;0.05;100.00;101495.15;107010;1278;25307;-70
2023/02/28 07:02:41;;;;;;;25.70;13.00;;;;;;;0.06;100.00;101496.51;107081;1278;22625;-70
2023/02/28 07:05:10;;;;;;;29.10;14.90;;;;;;;0.08;100.00;101510.25;107098;1278;26507;-70
2023/02/28 07:07:43;;;;;;;34.20;18.30;;;;;;;0.09;100.00;101510.90;107002;1277;22548;-69
2023/02/28 07:10:12;;;;;;;41.10;24.00;;;;;;;0.09;100.00;101507.55;107020;1277;26503;-69
2023/02/28 07:12:43;;;;;;;27.80;14.70;;;;;;;0.07;100.00;101509.22;107033;1278;25329;-70
2023/02/28 07:15:13;;;;;;;22.90;11.30;;;;;;;0.05;100.00;101513.23;106866;1277;23886;-69
2023/02/28 07:17:42;;;;;;;27.00;13.40;;;;;;;0.05;100.00;101502.56;107132;1277;22687;-70
2023/02/28 07:20:12;;;;;;;30.30;15.40;;;;;;;0.09;100.00;101499.95;106577;1277;1003084;-68
2023/02/28 07:22:42;;;;;;;33.60;18.50;;;;;;;0.12;100.00;101499.96;106258;1278;1003000;-69
2023/02/28 07:25:11;;;;;;;23.10;11.80;;;;;;;0.11;100.00;101502.16;107035;1278;23220;-70
2023/02/28 07:27:39;;;;;;;31.50;17.00;;;;;;;0.07;100.00;101495.79;106997;1278;24321;-70
2023/02/28 07:30:10;;;;;;;41.50;20.50;;;;;;;0.06;100.00;101498.10;106991;1278;23764;-70
2023/02/28 07:32:41;;;;;;;30.60;16.60;;;;;;;0.09;100.00;101498.85;106844;1278;22473;-69
2023/02/28 07:35:12;;;;;;;42.30;17.60;;;;;;;0.12;100.00;101497.84;106899;1277;22546;-73
2023/02/28 07:37:42;;;;;;;38.40;17.60;;;;;;;0.14;100.00;101492.61;106852;1277;26513;-71
2023/02/28 07:40:12;;;;;;;27.20;15.60;;;;;;;0.16;100.00;101486.50;106859;1278;25438;-71
2023/02/28 07:42:42;;;;;;;29.20;15.00;;;;;;;0.16;100.00;101484.88;106808;1278;25310;-71
2023/02/28 07:45:11;;;;;;;27.60;14.40;;;;;;;0.13;100.00;101491.59;106866;1272;25434;-71
2023/02/28 07:47:41;;;;;;;28.70;17.00;;;;;;;0.10;100.00;101490.66;106761;1278;23819;-70
2023/02/28 07:50:11;;;;;;;25.40;12.00;;;;;;;0.09;100.00;101491.59;106038;1278;1003666;-72
2023/02/28 07:52:40;;;;;;;27.90;13.60;;;;;;;0.13;100.00;101499.74;106778;1278;24203;-69
2023/02/28 07:55:09;;;;;;;25.30;14.50;;;;;;;0.13;100.00;101500.62;106959;1272;26531;-70
2023/02/28 07:57:38;;;;;;;26.90;14.80;;;;;;;0.08;100.00;101497.86;107099;1276;26514;-72
2023/02/28 08:00:09;;;;;;;24.70;12.80;;;;;;;0.04;100.00;101498.01;106687;1273;1002570;-69
2023/02/28 08:02:40;;;;;;;27.80;14.00;;;;;;;0.06;100.00;101502.92;106229;1269;1003240;-68
2023/02/28 08:05:09;;;;;;;28.50;17.40;;;;;;;0.10;100.00;101507.14;106900;1269;25639;-71
2023/02/28 08:07:48;;;;;;;22.20;11.50;;;;;;;0.12;100.00;101508.86;107110;1272;25580;-71
2023/02/28 08:10:17;;;;;;;23.50;12.70;;;;;;;0.12;100.00;101520.89;107014;1272;25451;-73
2023/02/28 08:12:47;;;;;;;26.50;12.80;;;;;;;0.19;100.00;101520.55;107462;1256;22636;-73
2023/02/28 08:15:16;;;;;;;26.90;14.40;;;;;;;0.29;100.00;101523.84;107236;1276;22526;-72
2023/02/28 08:17:46;;;;;;;24.60;13.10;;;;;;;0.38;100.00;101518.33;107070;1276;25335;-70
2023/02/28 08:20:15;;;;;;;32.50;18.20;;;;;;;0.43;100.00;101523.41;107226;1270;25469;-72
2023/02/28 08:22:44;;;;;;;25.40;14.20;;;;;;;0.48;100.00;101531.35;107336;1269;25556;-72
2023/02/28 08:25:14;;;;;;;28.40;16.50;;;;;;;0.55;100.00;101530.33;107329;1278;25448;-71
2023/02/28 08:27:43;;;;;;;21.70;11.70;;;;;;;0.65;100.00;101529.55;107218;1278;25474;-73
2023/02/28 08:30:13;;;;;;;23.00;12.20;;;;;;;0.73;100.00;101533.42;106258;1278;1003080;-72
2023/02/28 08:32:43;;;;;;;25.30;13.30;;;;;;;0.73;100.00;101536.43;107324;1278;22571;-72
2023/02/28 08:35:12;;;;;;;20.40;11.10;;;;;;;0.76;100.00;101537.17;107222;1278;22526;-72
2023/02/28 08:37:41;;;;;;;21.40;11.90;;;;;;;0.79;100.00;101538.10;107445;1278;24544;-73
2023/02/28 08:40:13;;;;;;;26.50;14.20;;;;;;;0.77;100.00;101545.13;107215;1278;26694;-74
2023/02/28 08:42:42;;;;;;;25.00;11.70;;;;;;;0.73;100.00;101546.90;107766;1276;26508;-70
2023/02/28 08:45:14;;;;;;;23.90;12.40;;;;;;;0.76;100.00;101551.20;107190;1276;23113;-70
2023/02/28 08:47:43;;;;;;;29.80;15.70;;;;;;;0.83;100.00;101565.10;106531;1278;1003708;-69
2023/02/28 08:50:14;;;;;;;24.90;13.40;;;;;;;0.89;100.00;101566.05;106334;1277;1003087;-72
2023/02/28 08:52:43;;;;;;;20.60;9.70;;;;;;;0.94;100.00;101566.86;107040;1271;22533;-69
2023/02/28 08:55:12;;;;;;;32.60;16.20;;;;;;;0.95;100.00;101567.52;106957;1276;25428;-73
2023/02/28 08:57:43;;;;;;;55.10;26.40;;;;;;;0.96;100.00;101561.11;107262;1276;25928;-73
2023/02/28 09:00:13;;;;;;;32.90;16.90;;;;;;;0.99;100.00;101563.98;107403;1276;24315;-72
2023/02/28 09:02:43;;;;;;;28.40;15.40;;;;;;;1.00;100.00;101562.89;107427;1271;25597;-74
2023/02/28 09:05:19;;;;;;;24.30;11.70;;;;;;;0.98;100.00;101567.59;107328;1270;26498;-73
2023/02/28 09:07:50;;;;;;;26.10;13.20;;;;;;;1.00;100.00;101567.50;106040;1275;1003734;-72
2023/02/28 09:10:19;;;;;;;35.10;17.50;;;;;;;1.06;100.00;101575.22;107531;1275;25460;-74
2023/02/28 09:12:47;;;;;;;123.70;46.70;;;;;;;1.12;100.00;101575.79;107236;1269;22520;-70
2023/02/28 09:15:18;;;;;;;108.40;46.40;;;;;;;1.19;100.00;101580.09;107269;1269;25175;-71
2023/02/28 09:17:47;;;;;;;22.50;13.10;;;;;;;1.23;100.00;101593.21;107144;1269;25361;-70
2023/02/28 09:20:17;;;;;;;21.00;12.60;;;;;;;1.20;100.00;101596.77;107151;1269;25619;-70
2023/02/28 09:22:46;;;;;;;19.60;11.20;;;;;;;1.11;100.00;101601.26;107642;1273;25446;-73
2023/02/28 09:25:14;;;;;;;18.70;10.30;;;;;;;1.04;100.00;101604.75;106710;1269;1003494;-74
2023/02/28 09:27:45;;;;;;;18.10;9.40;;;;;;;1.06;100.00;101608.04;106787;1270;1002563;-74
2023/02/28 09:30:14;;;;;;;17.30;9.00;;;;;;;1.10;100.00;101612.98;107769;1269;22534;-76
2023/02/28 09:32:51;;;;;;;20.00;9.10;;;;;;;1.13;100.00;101613.59;107359;1272;25441;-72
2023/02/28 09:35:21;;;;;;;20.10;9.80;;;;;;;1.08;100.00;101615.42;107203;1273;23160;-77
2023/02/28 09:37:54;;;;;;;18.90;10.50;;;;;;;1.02;100.00;101619.63;107465;1276;25273;-71
2023/02/28 09:40:24;;;;;;;21.80;10.80;;;;;;;0.99;100.00;101631.45;106447;1276;1002912;-75
2023/02/28 09:42:53;;;;;;;21.70;9.60;;;;;;;0.98;100.00;101641.27;107648;1276;24208;-76
2023/02/28 09:45:37;;;;;;;19.90;9.50;;;;;;;0.96;100.00;101644.55;107353;1276;23779;-75
2023/02/28 09:48:21;;;;;;;18.30;9.30;;;;;;;0.99;100.00;101636.11;107781;1276;22535;-75
2023/02/28 09:51:45;;;;;;;18.80;9.70;;;;;;;1.02;100.00;101638.06;107753;1276;22568;-76
2023/02/28 09:54:22;;;;;;;18.30;9.70;;;;;;;1.01;100.00;101627.64;106737;1277;1002802;-76
2023/02/28 09:56:54;;;;;;;18.80;9.00;;;;;;;1.05;100.00;101650.35;107647;1278;23860;-70
2023/02/28 09:59:31;;;;;;;20.80;9.80;;;;;;;1.09;100.00;101663.65;106983;1270;22563;-73
2023/02/28 10:02:20;;;;;;;20.50;9.50;;;;;;;1.15;100.00;101661.08;106869;1270;25400;-72
2023/02/28 10:05:12;;;;;;;25.30;11.70;;;;;;;1.24;100.00;101647.72;107166;1272;25429;-76
2023/02/28 10:08:01;;;;;;;29.40;15.40;;;;;;;1.30;100.00;101664.52;108351;1278;22567;-75
2023/02/28 10:10:44;;;;;;;21.20;11.60;;;;;;;1.33;100.00;101667.39;107512;1270;23902;-73
2023/02/28 10:13:24;;;;;;;19.50;10.20;;;;;;;1.26;100.00;101672.70;107093;1270;25266;-70
2023/02/28 10:15:59;;;;;;;19.60;10.10;;;;;;;1.12;100.00;101677.40;106983;1270;26494;-73
2023/02/28 10:18:47;;;;;;;20.80;10.00;;;;;;;1.01;100.00;101687.85;107313;1276;25903;-73
2023/02/28 10:21:32;;;;;;;19.70;9.40;;;;;;;0.93;100.00;101687.13;107254;1271;1002887;-76
2023/02/28 10:24:04;;;;;;;20.50;10.10;;;;;;;0.96;100.00;101696.42;106877;1277;1003584;-74
2023/02/28 10:26:35;;;;;;;19.40;8.90;;;;;;;1.02;100.00;101705.20;107812;1270;26576;-73
2023/02/28 10:29:08;;;;;;;19.80;10.50;;;;;;;1.07;100.00;101710.84;106658;1273;1002446;-74
2023/02/28 10:31:37;;;;;;;19.30;8.70;;;;;;;1.10;100.00;101714.98;107538;1270;23896;-75
2023/02/28 10:34:07;;;;;;;23.90;11.60;;;;;;;1.04;100.00;101712.60;107388;1276;23854;-75
2023/02/28 10:36:36;;;;;;;19.90;9.10;;;;;;;0.96;100.00;101717.73;107834;1270;26519;-78
2023/02/28 10:39:37;;;;;;;21.10;10.50;;;;;;;0.83;100.00;101721.46;107169;1274;25530;-69
2023/02/28 10:42:16;;;;;;;24.70;12.40;;;;;;;0.79;100.00;101706.95;106183;1277;1003270;-71
2023/02/28 10:44:48;;;;;;;24.70;10.60;;;;;;;0.73;100.00;101720.34;106936;1276;26522;-71
2023/02/28 10:47:19;;;;;;;20.80;10.80;;;;;;;0.71;100.00;101734.95;107295;1276;22597;-71
2023/02/28 10:49:49;;;;;;;18.20;9.20;;;;;;;0.71;100.00;101736.91;106862;1272;22532;-70
2023/02/28 10:52:36;;;;;;;20.70;9.90;;;;;;;0.62;100.00;101736.58;107014;1270;24407;-76
2023/02/28 10:55:34;;;;;;;18.60;10.50;;;;;;;0.62;100.00;101735.36;107509;1278;23234;-76
2023/02/28 10:58:03;;;;;;;22.20;10.30;;;;;;;0.68;100.00;101726.05;106957;1272;1003403;-78
2023/02/28 11:00:35;;;;;;;24.20;11.50;;;;;;;0.79;100.00;101734.08;107559;1263;23823;-78
2023/02/28 11:03:09;;;;;;;29.00;12.30;;;;;;;0.89;100.00;101736.86;107733;1278;22663;-78
2023/02/28 11:05:41;;;;;;;29.30;15.20;;;;;;;1.00;100.00;101733.00;107860;1273;22541;-74
2023/02/28 11:08:13;;;;;;;16.40;8.50;;;;;;;1.09;100.00;101730.13;107667;1272;26477;-71
2023/02/28 11:10:47;;;;;;;;;;;;;;;1.18;100.00;101729.35;106958;1272;22647;-70
2023/02/28 11:13:17;;;;;;;20.40;9.10;;;;;;;1.21;100.00;101727.27;106842;1272;22547;-70
2023/02/28 11:15:51;;;;;;;23.90;12.80;;;;;;;1.20;100.00;101726.41;106868;1256;24224;-70
2023/02/28 11:18:40;;;;;;;23.70;12.20;;;;;;;1.23;100.00;101733.19;106190;1272;1003094;-69
2023/02/28 11:21:09;;;;;;;21.30;11.50;;;;;;;1.22;100.00;101737.35;106363;1272;1003221;-77
2023/02/28 11:23:40;;;;;;;20.70;10.60;;;;;;;1.16;100.00;101739.02;107362;1270;25440;-75